Time;durP1;ratioP1;P1;durP2;ratioP2;P2;SDS_P1;SDS_P2;PMS_P1;PMS_P2;Temp;Humidity;BMP_temperature;BMP_pressure;BME280_temperature;BME280_humidity;BME280_pressure;Samples;Min_cycle;Max_cycle;Signal;HPM_P1;HPM_P2
2021/03/04 00:00:22;;;;;;;20.27;13.10;;;3.90;99.90;;;;;;4981186;28;20244;-78
2021/03/04 00:02:48;;;;;;;18.33;12.07;;;3.90;99.90;;;;;;4979624;28;20219;-78
2021/03/04 00:05:14;;;;;;;21.23;13.30;;;3.90;99.90;;;;;;4982856;28;20189;-78
2021/03/04 00:07:41;;;;;;;16.90;12.17;;;3.90;99.90;;;;;;4996405;28;21050;-78
2021/03/04 00:10:15;;;;;;;16.43;11.47;;;3.90;99.90;;;;;;4980207;28;20197;-78
2021/03/04 00:12:41;;;;;;;18.93;11.23;;;3.90;99.90;;;;;;4977923;28;20668;-78
2021/03/04 00:15:09;;;;;;;19.10;12.57;;;3.90;99.90;;;;;;4980313;28;20196;-78
2021/03/04 00:17:34;;;;;;;19.73;13.07;;;4.00;99.90;;;;;;4979733;28;20571;-78
2021/03/04 00:20:00;;;;;;;22.57;12.97;;;4.00;99.90;;;;;;4987459;28;20213;-78
2021/03/04 00:22:26;;;;;;;20.10;12.10;;;4.00;99.90;;;;;;4979846;28;20211;-76
2021/03/04 00:24:51;;;;;;;18.47;12.00;;;4.00;99.90;;;;;;4980518;28;20260;-77
2021/03/04 00:27:17;;;;;;;16.67;12.10;;;4.00;99.90;;;;;;4987252;28;20294;-78
2021/03/04 00:29:42;;;;;;;18.13;12.23;;;4.10;99.90;;;;;;4978316;28;20223;-78
2021/03/04 00:32:08;;;;;;;15.40;11.30;;;4.00;99.90;;;;;;4979729;28;20216;-78
2021/03/04 00:34:34;;;;;;;15.60;9.90;;;4.00;99.90;;;;;;4983049;28;20188;-78
2021/03/04 00:37:00;;;;;;;23.70;12.90;;;4.00;99.90;;;;;;4989552;28;20192;-79
2021/03/04 00:39:25;;;;;;;20.60;12.47;;;4.00;99.90;;;;;;4988175;28;20208;-78
2021/03/04 00:41:51;;;;;;;17.70;11.00;;;4.00;99.90;;;;;;4981428;28;20240;-78
2021/03/04 00:44:17;;;;;;;16.70;10.80;;;3.90;99.90;;;;;;4985693;28;20268;-78
2021/03/04 00:46:42;;;;;;;17.23;11.97;;;4.10;99.90;;;;;;4981122;28;20189;-80
2021/03/04 00:49:08;;;;;;;18.20;11.40;;;4.10;99.90;;;;;;4991158;28;20531;-78
2021/03/04 00:51:33;;;;;;;16.43;10.27;;;4.00;99.90;;;;;;4988617;28;20224;-79
2021/03/04 00:53:59;;;;;;;21.77;12.97;;;3.90;99.90;;;;;;4988461;28;20185;-78
2021/03/04 00:56:24;;;;;;;18.27;11.93;;;3.80;99.90;;;;;;4987849;28;20238;-78
2021/03/04 00:58:50;;;;;;;20.17;10.97;;;3.90;99.90;;;;;;4982286;28;20224;-80
2021/03/04 01:01:17;;;;;;;16.40;11.23;;;3.90;99.90;;;;;;4989920;28;20185;-78
2021/03/04 01:03:42;;;;;;;15.47;11.10;;;3.90;99.90;;;;;;4987716;28;20253;-78
2021/03/04 01:06:08;;;;;;;22.20;12.43;;;3.90;99.90;;;;;;4989101;28;20197;-79
2021/03/04 01:08:34;;;;;;;17.83;11.73;;;3.80;99.90;;;;;;4983213;28;20192;-80
2021/03/04 01:10:59;;;;;;;17.07;11.20;;;3.90;99.90;;;;;;4987947;28;20261;-79
2021/03/04 01:13:25;;;;;;;16.00;11.17;;;3.90;99.90;;;;;;4983944;28;20214;-78
2021/03/04 01:15:52;;;;;;;18.43;11.27;;;3.90;99.90;;;;;;4987639;28;20180;-78
2021/03/04 01:18:17;;;;;;;15.47;9.93;;;3.90;99.90;;;;;;4981367;28;20195;-78
2021/03/04 01:20:43;;;;;;;17.77;11.77;;;3.80;99.90;;;;;;4984053;28;21272;-78
2021/03/04 01:23:09;;;;;;;16.53;11.53;;;4.00;99.90;;;;;;4981808;28;20204;-78
2021/03/04 01:25:34;;;;;;;17.07;11.60;;;4.00;99.90;;;;;;4982560;28;20241;-78
2021/03/04 01:28:00;;;;;;;15.90;11.70;;;4.00;99.90;;;;;;4989062;28;20662;-78
2021/03/04 01:30:30;;;;;;;17.43;10.43;;;4.00;99.90;;;;;;4978377;28;20192;-78
2021/03/04 01:32:56;;;;;;;18.03;10.70;;;3.90;99.90;;;;;;4982839;28;20205;-78
2021/03/04 01:35:22;;;;;;;19.13;11.73;;;3.90;99.90;;;;;;4987706;28;21174;-78
2021/03/04 01:37:48;;;;;;;23.60;11.90;;;3.80;99.90;;;;;;4979997;28;21040;-79
2021/03/04 01:40:17;;;;;;;16.33;10.97;;;3.80;99.90;;;;;;4987940;28;20216;-78
2021/03/04 01:42:43;;;;;;;15.83;10.27;;;3.70;99.90;;;;;;4987401;28;20245;-78
2021/03/04 01:45:10;;;;;;;17.67;11.10;;;3.70;99.90;;;;;;4981883;28;20185;-78
2021/03/04 01:47:38;;;;;;;16.50;10.47;;;3.70;99.90;;;;;;4988925;28;20177;-78
2021/03/04 01:50:05;;;;;;;17.83;10.97;;;3.80;99.90;;;;;;4990069;28;20204;-78
2021/03/04 01:52:31;;;;;;;16.53;10.67;;;3.60;99.90;;;;;;4981228;28;20215;-79
2021/03/04 01:54:58;;;;;;;16.70;11.73;;;3.50;99.90;;;;;;4988927;28;20202;-78
2021/03/04 01:57:25;;;;;;;18.07;10.60;;;3.40;99.90;;;;;;4987321;28;20567;-79
2021/03/04 01:59:50;;;;;;;15.13;10.53;;;3.30;99.90;;;;;;4977622;28;20659;-78
2021/03/04 02:02:19;;;;;;;16.87;11.43;;;3.30;99.90;;;;;;4980490;28;20218;-78
2021/03/04 02:04:45;;;;;;;15.97;10.80;;;3.20;99.90;;;;;;4987924;28;20188;-78
2021/03/04 02:07:19;;;;;;;17.70;11.23;;;3.20;99.90;;;;;;4987564;28;20191;-80
2021/03/04 02:09:53;;;;;;;20.43;12.87;;;3.20;99.90;;;;;;4979566;28;20185;-79
2021/03/04 02:12:29;;;;;;;20.37;12.60;;;3.20;99.90;;;;;;4987870;28;20322;-81
2021/03/04 02:15:01;;;;;;;14.97;11.13;;;3.10;99.90;;;;;;4980578;28;20230;-78
2021/03/04 02:17:31;;;;;;;17.20;10.53;;;3.00;99.90;;;;;;4992980;28;20215;-77
2021/03/04 02:20:03;;;;;;;20.73;13.57;;;3.40;99.90;;;;;;4979082;28;20216;-79
2021/03/04 02:22:56;;;;;;;19.03;13.23;;;3.50;99.90;;;;;;4984494;28;20215;-79
2021/03/04 02:25:28;;;;;;;20.57;13.67;;;3.60;99.90;;;;;;4978985;28;20185;-77
2021/03/04 02:27:55;;;;;;;19.83;12.57;;;3.50;99.90;;;;;;4980305;28;20180;-77
2021/03/04 02:33:46;;;;;;;24.80;14.27;;;3.60;99.90;;;;;;4976286;28;20198;-78
2021/03/04 02:36:12;;;;;;;19.73;12.37;;;3.60;99.90;;;;;;4985015;28;20265;-79
2021/03/04 02:38:38;;;;;;;20.20;13.03;;;3.80;99.90;;;;;;4977371;28;20205;-79
2021/03/04 02:41:06;;;;;;;22.47;14.70;;;3.90;99.90;;;;;;4979366;28;20548;-77
2021/03/04 02:43:33;;;;;;;25.33;14.97;;;3.90;99.90;;;;;;4977051;28;20211;-79
2021/03/04 02:46:00;;;;;;;22.43;14.23;;;4.00;99.90;;;;;;4984728;28;20285;-79
2021/03/04 02:48:27;;;;;;;23.23;13.20;;;4.10;99.90;;;;;;4975863;28;20176;-79
2021/03/04 02:50:55;;;;;;;24.63;15.97;;;4.10;99.90;;;;;;4977714;28;20233;-79
2021/03/04 02:53:22;;;;;;;21.30;14.13;;;4.10;99.90;;;;;;4978215;28;20596;-80
2021/03/04 02:55:49;;;;;;;22.00;14.00;;;4.10;99.90;;;;;;4977077;28;20184;-77
2021/03/04 02:58:16;;;;;;;22.83;14.07;;;4.20;99.90;;;;;;4979415;28;20271;-78
2021/03/04 03:00:42;;;;;;;21.63;14.17;;;4.20;99.90;;;;;;4976542;28;20208;-80
2021/03/04 03:03:13;;;;;;;17.97;13.30;;;4.20;99.90;;;;;;4984733;28;20204;-78
2021/03/04 03:05:42;;;;;;;20.60;12.43;;;4.30;99.90;;;;;;4994397;28;20247;-79
2021/03/04 03:08:12;;;;;;;20.07;12.30;;;4.20;99.90;;;;;;4984700;28;20986;-80
2021/03/04 03:10:38;;;;;;;22.67;14.17;;;4.20;99.90;;;;;;4987026;28;20274;-79
2021/03/04 03:13:04;;;;;;;20.50;13.77;;;4.30;99.90;;;;;;4977980;28;20280;-79
2021/03/04 03:15:30;;;;;;;25.23;12.97;;;4.30;99.90;;;;;;4992669;28;20200;-78
2021/03/04 03:17:56;;;;;;;26.57;14.00;;;4.20;99.90;;;;;;4992045;28;20191;-77
2021/03/04 03:20:25;;;;;;;23.13;13.10;;;4.30;99.90;;;;;;4977866;28;20299;-79
2021/03/04 03:22:52;;;;;;;26.90;14.47;;;4.30;99.90;;;;;;4978140;28;20206;-80
2021/03/04 03:25:18;;;;;;;18.50;12.33;;;4.30;99.90;;;;;;4977748;28;20192;-78
2021/03/04 03:27:45;;;;;;;22.87;14.17;;;4.30;99.90;;;;;;4977592;28;20645;-78
2021/03/04 03:30:17;;;;;;;19.87;14.10;;;4.30;99.90;;;;;;4978565;28;20190;-78
2021/03/04 03:33:01;;;;;;;19.27;14.00;;;4.30;99.90;;;;;;4976179;28;20925;-78
2021/03/04 03:35:28;;;;;;;22.93;13.53;;;4.30;99.90;;;;;;4978869;28;20220;-78
2021/03/04 03:37:55;;;;;;;21.17;12.97;;;4.30;99.90;;;;;;4985321;28;20667;-79
2021/03/04 03:40:23;;;;;;;19.47;13.57;;;4.40;99.90;;;;;;4978420;28;20214;-78
2021/03/04 03:42:50;;;;;;;18.03;12.60;;;4.40;99.90;;;;;;4975778;28;20617;-78
2021/03/04 03:45:23;;;;;;;20.50;12.00;;;4.40;99.90;;;;;;4979882;28;20218;-79
2021/03/04 03:47:49;;;;;;;22.13;13.50;;;4.30;99.90;;;;;;4981668;28;20180;-77
2021/03/04 03:50:15;;;;;;;20.30;13.13;;;4.30;99.90;;;;;;4982300;28;20220;-79
2021/03/04 03:52:43;;;;;;;22.33;12.50;;;4.30;99.90;;;;;;4987672;28;20215;-77
2021/03/04 03:55:10;;;;;;;24.00;13.17;;;4.20;99.90;;;;;;4982180;28;20298;-79
2021/03/04 03:57:37;;;;;;;20.03;12.37;;;4.30;99.90;;;;;;4983899;28;20188;-78
2021/03/04 04:00:05;;;;;;;22.50;12.10;;;4.30;99.90;;;;;;4987629;28;20294;-80
2021/03/04 04:02:31;;;;;;;26.33;13.77;;;4.30;99.90;;;;;;4980376;28;20223;-80
2021/03/04 04:04:57;;;;;;;17.10;11.23;;;4.30;99.90;;;;;;4987565;28;20283;-79
2021/03/04 04:07:23;;;;;;;22.07;12.57;;;4.30;99.90;;;;;;4986854;28;20226;-79
2021/03/04 04:09:49;;;;;;;20.20;12.83;;;4.20;99.90;;;;;;4979706;28;20698;-80
2021/03/04 04:12:15;;;;;;;21.20;13.73;;;4.30;99.90;;;;;;4986739;28;20212;-79
2021/03/04 04:14:40;;;;;;;23.07;13.90;;;4.30;99.90;;;;;;4980568;28;20185;-78
2021/03/04 04:17:07;;;;;;;25.13;13.43;;;4.30;99.90;;;;;;4980140;28;20215;-80
2021/03/04 04:19:35;;;;;;;24.63;13.57;;;4.30;99.90;;;;;;4981006;28;20342;-78
2021/03/04 04:22:01;;;;;;;24.57;13.17;;;4.30;99.90;;;;;;4981082;28;20616;-79
2021/03/04 04:24:26;;;;;;;22.93;13.90;;;4.20;99.90;;;;;;4980248;28;20180;-79
2021/03/04 04:26:52;;;;;;;24.57;14.37;;;4.20;99.90;;;;;;4979800;28;20348;-78
2021/03/04 04:29:18;;;;;;;24.47;13.80;;;4.30;99.90;;;;;;4978350;28;20183;-77
2021/03/04 04:31:43;;;;;;;24.27;12.53;;;4.20;99.90;;;;;;4978919;28;20211;-79
2021/03/04 04:34:09;;;;;;;25.93;14.50;;;4.20;99.90;;;;;;4987839;28;20192;-80
2021/03/04 04:36:35;;;;;;;24.67;13.40;;;4.20;99.90;;;;;;4986684;28;20610;-79
2021/03/04 04:39:00;;;;;;;27.97;13.73;;;4.30;99.90;;;;;;4981017;28;20674;-78
2021/03/04 04:41:26;;;;;;;20.53;13.60;;;4.30;99.90;;;;;;4986420;28;20188;-77
2021/03/04 04:43:51;;;;;;;26.63;14.60;;;4.20;99.90;;;;;;4980619;28;20189;-79
2021/03/04 04:46:17;;;;;;;24.80;15.43;;;4.20;99.90;;;;;;4986951;28;20222;-79
2021/03/04 04:48:43;;;;;;;24.47;13.40;;;4.20;99.90;;;;;;4986657;28;20192;-78
2021/03/04 04:51:10;;;;;;;24.37;12.83;;;4.20;99.90;;;;;;4978922;28;20236;-80
2021/03/04 04:53:36;;;;;;;20.43;12.77;;;4.20;99.90;;;;;;4977820;28;20266;-80
2021/03/04 04:56:02;;;;;;;38.50;13.13;;;4.20;99.90;;;;;;4980781;28;20176;-78
2021/03/04 04:58:28;;;;;;;24.20;13.17;;;4.20;99.90;;;;;;4979546;28;20218;-78
2021/03/04 05:00:53;;;;;;;19.03;11.90;;;4.30;99.90;;;;;;4978718;28;20243;-77
2021/03/04 05:03:19;;;;;;;25.57;13.40;;;4.20;99.90;;;;;;4977762;28;20211;-78
2021/03/04 05:05:44;;;;;;;22.63;13.30;;;4.20;99.90;;;;;;4979075;28;20185;-79
2021/03/04 05:08:10;;;;;;;23.60;12.03;;;4.20;99.90;;;;;;4979360;28;20199;-78
2021/03/04 05:10:35;;;;;;;22.90;13.63;;;4.20;99.90;;;;;;4977008;28;20250;-78
2021/03/04 05:13:01;;;;;;;23.67;10.90;;;4.10;99.90;;;;;;4977770;28;20255;-78
2021/03/04 05:15:27;;;;;;;22.57;12.00;;;4.30;99.90;;;;;;4980080;28;20295;-79
2021/03/04 05:17:52;;;;;;;34.43;14.77;;;4.30;99.90;;;;;;4978681;28;20271;-78
2021/03/04 05:20:18;;;;;;;21.73;12.60;;;4.20;99.90;;;;;;4979299;28;20216;-79
2021/03/04 05:22:43;;;;;;;22.13;12.70;;;4.00;99.90;;;;;;4986123;28;20211;-78
2021/03/04 05:25:09;;;;;;;21.33;12.57;;;3.90;99.90;;;;;;4987313;28;20192;-79
2021/03/04 05:27:35;;;;;;;22.90;12.53;;;3.90;99.90;;;;;;4978653;28;20237;-79
2021/03/04 05:30:01;;;;;;;21.97;11.97;;;3.90;99.90;;;;;;4986012;28;20271;-79
2021/03/04 05:32:26;;;;;;;23.57;11.80;;;3.80;99.90;;;;;;4986518;28;20216;-80
2021/03/04 05:34:52;;;;;;;24.13;12.77;;;3.80;99.90;;;;;;4979810;28;20199;-77
2021/03/04 05:37:17;;;;;;;21.40;12.33;;;3.80;99.90;;;;;;4979572;28;21152;-80
2021/03/04 05:39:43;;;;;;;27.27;13.73;;;3.80;99.90;;;;;;4979933;28;20208;-78
2021/03/04 05:42:09;;;;;;;19.17;11.57;;;3.70;99.90;;;;;;4985506;28;20224;-79
2021/03/04 05:44:36;;;;;;;23.87;11.70;;;3.70;99.90;;;;;;4985347;28;20185;-78
2021/03/04 05:47:05;;;;;;;19.83;11.67;;;3.80;99.90;;;;;;4985815;28;20181;-78
2021/03/04 05:49:35;;;;;;;20.23;11.83;;;3.80;99.90;;;;;;4977922;28;20196;-78
2021/03/04 05:52:03;;;;;;;24.80;12.70;;;3.80;99.90;;;;;;4979293;28;21238;-79
2021/03/04 05:54:34;;;;;;;25.47;12.97;;;3.80;99.90;;;;;;4978754;28;20226;-77
2021/03/04 05:57:01;;;;;;;27.77;13.83;;;3.80;99.90;;;;;;4979946;28;20188;-78
2021/03/04 05:59:26;;;;;;;20.97;10.97;;;3.70;99.90;;;;;;4979527;28;20327;-79
2021/03/04 06:01:53;;;;;;;18.83;9.97;;;3.70;99.90;;;;;;4985181;28;20299;-78
2021/03/04 06:04:18;;;;;;;19.13;10.80;;;3.50;99.90;;;;;;4978780;28;20192;-79
2021/03/04 06:06:45;;;;;;;22.17;11.97;;;3.60;99.90;;;;;;4979937;28;20194;-77
2021/03/04 06:09:10;;;;;;;19.47;10.87;;;3.50;99.90;;;;;;4977619;28;20189;-78
2021/03/04 06:11:37;;;;;;;20.13;10.27;;;3.60;99.90;;;;;;4985168;28;20216;-80
2021/03/04 06:14:04;;;;;;;28.53;12.37;;;3.60;99.90;;;;;;4978743;28;20753;-79
2021/03/04 06:16:30;;;;;;;23.23;12.20;;;3.60;99.90;;;;;;4984490;28;20176;-78
2021/03/04 06:18:56;;;;;;;21.30;11.67;;;3.60;99.90;;;;;;4979547;28;20243;-79
2021/03/04 06:21:28;;;;;;;20.43;10.77;;;3.60;99.90;;;;;;4985395;28;20224;-79
2021/03/04 06:23:55;;;;;;;23.90;12.77;;;3.60;99.90;;;;;;4984688;28;20185;-78
2021/03/04 06:26:37;;;;;;;19.33;13.00;;;3.50;99.90;;;;;;4977314;28;20192;-79
2021/03/04 06:29:15;;;;;;;20.63;10.83;;;3.40;99.90;;;;;;4981126;28;20695;-78
2021/03/04 06:31:41;;;;;;;22.73;13.50;;;3.40;99.90;;;;;;4978866;28;20280;-79
2021/03/04 06:34:21;;;;;;;19.57;11.17;;;3.40;99.90;;;;;;4980503;28;20191;-79
2021/03/04 06:37:01;;;;;;;19.60;11.00;;;3.40;99.90;;;;;;4981620;28;20552;-78
2021/03/04 06:39:45;;;;;;;24.83;12.90;;;3.40;99.90;;;;;;4979134;28;20231;-78
2021/03/04 06:42:12;;;;;;;23.80;12.70;;;3.50;99.90;;;;;;4978725;28;20208;-79
2021/03/04 06:44:52;;;;;;;23.03;10.87;;;3.50;99.90;;;;;;4985339;28;20736;-78
2021/03/04 06:47:28;;;;;;;18.07;11.27;;;3.40;99.90;;;;;;4979565;28;20180;-78
2021/03/04 06:49:56;;;;;;;18.70;10.97;;;3.40;99.90;;;;;;4978502;28;20208;-79
2021/03/04 06:52:28;;;;;;;21.63;12.13;;;3.50;99.90;;;;;;4984043;28;20209;-78
2021/03/04 06:55:05;;;;;;;17.00;10.43;;;3.50;99.90;;;;;;4976265;28;20234;-79
2021/03/04 06:57:31;;;;;;;19.53;11.10;;;3.60;99.90;;;;;;4983175;28;20622;-78
2021/03/04 06:59:56;;;;;;;20.37;11.03;;;3.60;99.90;;;;;;4983077;28;20315;-78
2021/03/04 07:02:29;;;;;;;16.17;9.30;;;3.60;99.90;;;;;;4976334;28;20698;-78
2021/03/04 07:04:57;;;;;;;19.13;12.17;;;3.60;99.90;;;;;;4986352;28;20213;-78
2021/03/04 07:07:24;;;;;;;22.80;11.37;;;3.60;99.90;;;;;;4997679;28;20219;-79
2021/03/04 07:09:52;;;;;;;19.27;10.63;;;3.60;99.90;;;;;;4980635;28;20299;-80
2021/03/04 07:12:19;;;;;;;17.67;11.07;;;3.60;99.90;;;;;;4987302;28;20219;-80
2021/03/04 07:14:47;;;;;;;20.77;12.37;;;3.70;99.90;;;;;;4986172;28;20926;-79
2021/03/04 07:17:15;;;;;;;17.03;10.70;;;3.60;99.90;;;;;;4982485;28;20260;-78
2021/03/04 07:19:46;;;;;;;19.53;12.40;;;3.60;99.90;;;;;;4987584;28;20212;-79
2021/03/04 07:22:12;;;;;;;20.10;10.53;;;3.60;99.90;;;;;;4982544;28;20720;-78
2021/03/04 07:24:39;;;;;;;18.00;9.77;;;3.60;99.90;;;;;;4990222;28;20193;-79
2021/03/04 07:27:07;;;;;;;18.83;10.97;;;3.50;99.90;;;;;;4984359;28;20232;-78
2021/03/04 07:29:34;;;;;;;18.63;11.53;;;3.50;99.90;;;;;;4990838;28;20196;-79
2021/03/04 07:32:04;;;;;;;18.80;10.30;;;3.60;99.90;;;;;;4989531;28;20223;-78
2021/03/04 07:34:32;;;;;;;17.43;12.23;;;3.70;99.90;;;;;;4983168;28;20188;-79
2021/03/04 07:36:58;;;;;;;19.43;10.30;;;3.70;99.90;;;;;;4985969;28;20194;-79
2021/03/04 07:39:42;;;;;;;20.13;10.33;;;3.70;99.90;;;;;;4984419;28;20181;-79
2021/03/04 07:42:19;;;;;;;19.53;9.60;;;3.70;99.90;;;;;;4981848;28;20208;-78
2021/03/04 07:44:45;;;;;;;18.40;10.87;;;3.60;99.90;;;;;;4981484;28;20244;-78
2021/03/04 07:47:10;;;;;;;16.47;9.47;;;3.60;99.90;;;;;;4985617;28;20188;-79
2021/03/04 07:49:43;;;;;;;17.53;10.47;;;3.50;99.90;;;;;;4989607;28;20300;-79
2021/03/04 07:52:24;;;;;;;15.83;9.17;;;3.60;99.90;;;;;;4980135;28;20212;-78
2021/03/04 07:54:55;;;;;;;18.70;9.90;;;3.60;99.90;;;;;;4980554;28;21094;-78
2021/03/04 07:57:23;;;;;;;19.67;10.97;;;3.60;99.90;;;;;;4982087;28;20660;-78
2021/03/04 07:59:54;;;;;;;17.47;9.67;;;3.70;99.90;;;;;;4988916;28;20313;-79
2021/03/04 08:02:31;;;;;;;18.70;10.03;;;3.70;99.90;;;;;;4982491;28;20203;-79
2021/03/04 08:05:30;;;;;;;16.97;10.60;;;3.80;99.90;;;;;;4982254;28;20176;-79
2021/03/04 08:07:56;;;;;;;15.47;9.13;;;3.80;99.90;;;;;;4980030;28;20204;-78
2021/03/04 08:10:24;;;;;;;17.63;9.03;;;3.70;99.90;;;;;;4984021;28;20618;-78
2021/03/04 08:12:54;;;;;;;15.63;8.93;;;3.80;99.90;;;;;;4981446;28;20686;-79
2021/03/04 08:15:40;;;;;;;14.30;9.07;;;3.80;99.90;;;;;;4984038;28;20179;-79
2021/03/04 08:18:20;;;;;;;16.43;8.13;;;3.70;99.90;;;;;;4980546;28;20196;-80
2021/03/04 08:20:47;;;;;;;13.27;7.27;;;3.80;99.90;;;;;;4981440;28;20207;-79
2021/03/04 08:23:15;;;;;;;17.63;8.97;;;3.80;99.90;;;;;;4980670;28;20205;-78
2021/03/04 08:25:41;;;;;;;15.83;8.17;;;3.80;99.90;;;;;;4983330;28;20177;-79
2021/03/04 08:28:08;;;;;;;17.57;10.30;;;3.80;99.90;;;;;;4982196;28;21140;-79
2021/03/04 08:30:42;;;;;;;18.07;10.73;;;3.90;99.90;;;;;;4981307;28;20200;-78
2021/03/04 08:33:10;;;;;;;15.73;10.03;;;4.00;99.90;;;;;;4980497;28;20711;-79
2021/03/04 08:35:37;;;;;;;17.23;10.07;;;4.00;99.90;;;;;;4987825;28;20825;-78
2021/03/04 08:38:06;;;;;;;15.93;8.20;;;4.10;99.90;;;;;;4978792;28;20195;-84
2021/03/04 08:40:49;;;;;;;15.00;9.33;;;4.00;99.90;;;;;;4985623;28;20217;-79
2021/03/04 08:43:18;;;;;;;14.60;7.50;;;4.00;99.90;;;;;;4977274;28;20440;-80
2021/03/04 08:45:45;;;;;;;15.73;7.80;;;4.00;99.90;;;;;;4986850;28;20790;-78
2021/03/04 08:48:12;;;;;;;21.43;9.77;;;4.10;99.90;;;;;;4979148;28;20190;-78
2021/03/04 08:50:40;;;;;;;17.83;9.37;;;4.10;99.90;;;;;;4981391;28;20816;-78
2021/03/04 08:53:14;;;;;;;15.07;8.90;;;4.10;99.90;;;;;;4979887;28;20213;-78
2021/03/04 08:56:03;;;;;;;15.10;9.73;;;4.20;99.90;;;;;;4984443;28;20184;-78
2021/03/04 08:58:31;;;;;;;13.53;7.60;;;4.30;99.90;;;;;;4982100;28;20216;-78
2021/03/04 09:01:01;;;;;;;15.73;8.90;;;4.30;99.90;;;;;;4979823;28;20268;-78
2021/03/04 09:03:28;;;;;;;17.33;9.07;;;4.30;99.90;;;;;;4976418;28;20203;-79
2021/03/04 09:06:06;;;;;;;18.20;9.17;;;4.30;99.90;;;;;;4980965;28;20200;-81
2021/03/04 09:08:38;;;;;;;20.30;9.77;;;4.20;99.90;;;;;;4977818;28;20176;-79
2021/03/04 09:11:05;;;;;;;24.07;9.73;;;4.20;99.90;;;;;;4979767;28;20181;-80
2021/03/04 09:13:32;;;;;;;24.77;10.60;;;4.30;99.90;;;;;;4978039;28;20627;-79
2021/03/04 09:16:06;;;;;;;20.80;9.87;;;4.20;99.90;;;;;;4987847;28;20243;-79
2021/03/04 09:18:42;;;;;;;18.73;10.03;;;4.40;99.90;;;;;;4978804;28;20200;-79
2021/03/04 09:21:11;;;;;;;18.73;9.93;;;4.50;99.90;;;;;;4979080;28;20196;-79
2021/03/04 09:23:37;;;;;;;18.47;9.90;;;4.50;99.90;;;;;;4983384;28;20215;-84
2021/03/04 09:26:03;;;;;;;15.07;7.67;;;4.60;99.90;;;;;;4981196;28;20185;-81
2021/03/04 09:28:30;;;;;;;22.80;9.83;;;4.80;99.90;;;;;;4976765;28;20196;-80
2021/03/04 09:30:56;;;;;;;18.00;9.23;;;4.90;99.90;;;;;;4980727;28;20185;-78
2021/03/04 09:33:23;;;;;;;18.50;7.67;;;4.90;99.90;;;;;;4972098;28;20212;-80
2021/03/04 09:35:57;;;;;;;17.93;9.27;;;4.70;99.90;;;;;;4983551;28;20414;-79
2021/03/04 09:38:24;;;;;;;14.67;8.57;;;4.50;99.90;;;;;;4970209;28;20189;-79
2021/03/04 09:40:50;;;;;;;16.00;9.10;;;4.30;99.90;;;;;;4977597;28;20272;-78
2021/03/04 09:43:18;;;;;;;20.17;9.67;;;4.30;99.90;;;;;;4971239;28;20268;-80
2021/03/04 09:45:48;;;;;;;11.93;7.27;;;4.40;99.90;;;;;;4974117;28;20215;-79
2021/03/04 09:48:14;;;;;;;15.53;9.03;;;4.50;99.90;;;;;;4981754;28;20185;-78
2021/03/04 09:50:51;;;;;;;16.67;8.83;;;4.30;99.90;;;;;;4972712;28;20281;-79
2021/03/04 09:53:17;;;;;;;13.97;8.17;;;4.40;99.90;;;;;;4981098;28;20212;-78
2021/03/04 09:55:45;;;;;;;13.87;8.00;;;4.40;99.90;;;;;;4970665;28;20189;-78
2021/03/04 09:58:15;;;;;;;14.53;8.00;;;4.30;99.90;;;;;;4982968;28;20192;-79
2021/03/04 10:00:42;;;;;;;8.77;6.13;;;4.20;99.90;;;;;;4979003;28;20215;-78
2021/03/04 10:03:12;;;;;;;11.63;6.20;;;4.10;99.90;;;;;;4981216;28;20204;-78
2021/03/04 10:05:49;;;;;;;13.83;7.53;;;4.30;99.90;;;;;;4975113;28;20872;-79
2021/03/04 10:08:17;;;;;;;15.10;8.10;;;4.40;99.90;;;;;;4969930;28;20212;-78
2021/03/04 10:10:44;;;;;;;16.60;8.10;;;4.50;99.90;;;;;;4981693;28;20279;-81
2021/03/04 10:13:09;;;;;;;13.57;7.23;;;4.40;99.90;;;;;;4981350;28;20231;-78
2021/03/04 10:15:43;;;;;;;16.47;7.57;;;4.40;99.90;;;;;;4982282;28;20268;-79
2021/03/04 10:18:14;;;;;;;10.67;6.27;;;4.60;99.90;;;;;;4972788;28;20188;-78
2021/03/04 10:20:44;;;;;;;10.03;5.87;;;4.50;99.90;;;;;;4983994;28;20456;-79
2021/03/04 10:23:10;;;;;;;9.40;5.13;;;4.10;99.90;;;;;;4975295;28;20588;-79
2021/03/04 10:25:35;;;;;;;12.03;6.67;;;4.00;99.90;;;;;;4975029;28;20198;-79
2021/03/04 10:28:03;;;;;;;11.40;5.57;;;4.00;99.90;;;;;;4970062;28;20199;-78
2021/03/04 10:30:29;;;;;;;11.37;5.83;;;3.80;99.90;;;;;;4971030;28;20264;-80
2021/03/04 10:32:55;;;;;;;13.73;5.50;;;3.80;99.90;;;;;;4978583;28;20330;-79
2021/03/04 10:35:22;;;;;;;13.47;5.93;;;3.90;99.90;;;;;;4980782;28;20192;-80
2021/03/04 10:37:47;;;;;;;9.10;5.17;;;3.90;99.90;;;;;;4984345;28;20192;-78
2021/03/04 10:40:15;;;;;;;12.73;6.17;;;3.90;99.90;;;;;;4972958;28;20358;-78
2021/03/04 10:42:41;;;;;;;11.27;6.47;;;4.10;99.90;;;;;;4982436;28;20207;-78
2021/03/04 10:45:13;;;;;;;9.87;5.57;;;4.20;99.90;;;;;;4978914;28;20240;-79
2021/03/04 10:47:40;;;;;;;8.00;5.63;;;4.40;99.90;;;;;;4981693;28;20181;-79
2021/03/04 10:50:08;;;;;;;13.93;5.33;;;4.50;99.90;;;;;;4968274;28;20288;-79
2021/03/04 10:52:33;;;;;;;8.90;5.50;;;4.60;99.90;;;;;;4979352;28;20219;-78
2021/03/04 10:54:59;;;;;;;14.30;7.07;;;4.70;99.90;;;;;;4973925;28;20192;-80
2021/03/04 10:57:25;;;;;;;13.87;6.30;;;4.70;99.90;;;;;;4976091;28;20193;-80
2021/03/04 10:59:50;;;;;;;13.33;6.87;;;4.70;99.90;;;;;;4987845;28;20234;-79
2021/03/04 11:02:16;;;;;;;10.33;5.37;;;4.60;99.90;;;;;;4971249;28;20205;-79
2021/03/04 11:04:42;;;;;;;12.90;7.33;;;4.40;99.90;;;;;;4983328;28;20181;-78
2021/03/04 11:07:07;;;;;;;11.40;6.40;;;4.40;99.90;;;;;;4968913;28;20605;-79
2021/03/04 11:09:33;;;;;;;10.73;5.13;;;4.40;99.90;;;;;;4989093;28;20262;-79
2021/03/04 11:11:59;;;;;;;10.37;4.40;;;4.30;99.90;;;;;;4983553;28;20274;-79
2021/03/04 11:14:25;;;;;;;11.70;5.83;;;4.40;99.90;;;;;;4985746;28;20679;-78
2021/03/04 11:16:51;;;;;;;10.67;5.93;;;4.40;99.90;;;;;;4977304;28;20209;-79
2021/03/04 11:19:16;;;;;;;13.47;7.03;;;4.40;99.90;;;;;;4981953;28;20180;-79
2021/03/04 11:21:43;;;;;;;13.50;7.80;;;4.50;99.90;;;;;;4979976;28;20561;-78
2021/03/04 11:24:09;;;;;;;10.40;6.40;;;4.50;99.90;;;;;;4987314;28;21239;-78
2021/03/04 11:26:38;;;;;;;12.60;6.57;;;4.50;99.90;;;;;;4979190;28;20207;-78
2021/03/04 11:29:11;;;;;;;9.53;4.70;;;4.50;99.90;;;;;;4986754;28;20279;-80
2021/03/04 11:31:37;;;;;;;10.17;5.33;;;4.30;99.90;;;;;;4978821;28;20181;-79
2021/03/04 11:34:03;;;;;;;14.40;6.13;;;4.40;99.90;;;;;;4986398;28;20192;-78
2021/03/04 11:36:30;;;;;;;7.53;4.97;;;4.40;99.90;;;;;;4979274;28;20189;-82
2021/03/04 11:38:57;;;;;;;8.10;4.70;;;4.30;99.90;;;;;;4986571;28;20188;-78
2021/03/04 11:41:22;;;;;;;9.77;5.47;;;4.30;99.90;;;;;;4981015;28;20200;-77
2021/03/04 11:43:48;;;;;;;12.03;5.17;;;4.20;99.90;;;;;;4981164;28;20180;-77
2021/03/04 11:46:14;;;;;;;8.23;5.33;;;4.20;99.90;;;;;;4986806;28;20706;-79
2021/03/04 11:48:40;;;;;;;6.87;4.30;;;4.20;99.90;;;;;;4978734;28;20184;-78
2021/03/04 11:51:06;;;;;;;6.33;3.77;;;4.30;99.90;;;;;;4983840;28;20227;-78
2021/03/04 11:53:32;;;;;;;11.33;5.80;;;4.30;99.90;;;;;;4982467;28;20270;-79
2021/03/04 11:55:59;;;;;;;10.80;4.77;;;4.40;99.90;;;;;;4974775;28;20199;-80
2021/03/04 11:58:26;;;;;;;6.20;4.30;;;4.40;99.90;;;;;;4989605;28;20192;-79
2021/03/04 12:00:53;;;;;;;6.13;3.77;;;4.40;99.90;;;;;;4971122;28;20762;-79
2021/03/04 12:03:20;;;;;;;8.70;4.70;;;4.20;99.90;;;;;;4979473;28;20223;-79
2021/03/04 12:05:46;;;;;;;7.53;4.13;;;4.10;99.90;;;;;;4984321;28;20185;-78
2021/03/04 12:08:12;;;;;;;7.83;4.00;;;4.10;99.90;;;;;;4985697;28;20180;-79
2021/03/04 12:10:37;;;;;;;5.80;3.27;;;4.20;99.90;;;;;;4980046;28;20248;-78
2021/03/04 12:13:04;;;;;;;7.60;3.87;;;4.00;99.90;;;;;;4985890;28;20208;-79
2021/03/04 12:15:30;;;;;;;8.37;4.90;;;4.00;99.90;;;;;;4977575;28;20243;-78
2021/03/04 12:17:55;;;;;;;5.43;3.67;;;4.00;99.90;;;;;;4986987;28;20196;-79
2021/03/04 12:20:21;;;;;;;6.40;3.80;;;4.00;99.90;;;;;;4978725;28;20208;-80
2021/03/04 12:22:46;;;;;;;5.83;3.83;;;4.00;99.90;;;;;;4985581;28;20204;-78
2021/03/04 12:25:12;;;;;;;9.37;5.27;;;4.00;99.90;;;;;;4978706;28;20568;-78
2021/03/04 12:27:38;;;;;;;10.40;4.70;;;4.00;99.90;;;;;;4978687;28;20204;-79
2021/03/04 12:30:05;;;;;;;9.43;5.83;;;4.00;99.90;;;;;;4984829;28;20194;-79
2021/03/04 12:32:30;;;;;;;7.83;3.77;;;4.00;99.90;;;;;;4985319;28;20912;-78
2021/03/04 12:34:56;;;;;;;9.83;5.13;;;4.00;99.90;;;;;;4985426;28;20267;-79
2021/03/04 12:37:22;;;;;;;7.73;4.33;;;4.00;99.90;;;;;;4979604;28;20184;-79
2021/03/04 12:39:47;;;;;;;5.53;3.17;;;4.10;99.90;;;;;;4979833;28;20209;-79
2021/03/04 12:42:13;;;;;;;6.90;3.73;;;4.10;99.90;;;;;;4977806;28;20216;-78
2021/03/04 12:44:39;;;;;;;9.13;3.87;;;4.10;99.90;;;;;;4979301;28;20185;-79
2021/03/04 12:47:05;;;;;;;7.17;3.97;;;4.10;99.90;;;;;;4984942;28;20252;-78